sensor_id;sensor_type;location;lat;lon;timestamp;pressure;altitude;pressure_sealevel;temperature;humidity
68941;BME280;55982;51.476;7.552;2023-04-30T00:01:36;100472.06;;;6.29;100.00
68941;BME280;55982;51.476;7.552;2023-04-30T00:04:02;100466.91;;;6.17;100.00
68941;BME280;55982;51.476;7.552;2023-04-30T00:06:27;100471.28;;;6.07;100.00
68941;BME280;55982;51.476;7.552;2023-04-30T00:08:52;100463.50;;;6.12;100.00
68941;BME280;55982;51.476;7.552;2023-04-30T00:11:18;100465.22;;;6.10;100.00
68941;BME280;55982;51.476;7.552;2023-04-30T00:13:43;100471.34;;;6.03;100.00
68941;BME280;55982;51.476;7.552;2023-04-30T00:16:08;100466.16;;;5.98;100.00
68941;BME280;55982;51.476;7.552;2023-04-30T00:18:34;100461.84;;;5.99;100.00
68941;BME280;55982;51.476;7.552;2023-04-30T00:21:00;100463.56;;;5.94;100.00
68941;BME280;55982;51.476;7.552;2023-04-30T00:23:25;100467.03;;;5.93;100.00
68941;BME280;55982;51.476;7.552;2023-04-30T00:25:50;100472.28;;;5.90;100.00
68941;BME280;55982;51.476;7.552;2023-04-30T00:28:16;100472.28;;;5.84;100.00
68941;BME280;55982;51.476;7.552;2023-04-30T00:30:41;100472.25;;;5.81;100.00
68941;BME280;55982;51.476;7.552;2023-04-30T00:33:06;100473.97;;;5.91;100.00
68941;BME280;55982;51.476;7.552;2023-04-30T00:35:32;100476.59;;;5.86;100.00
68941;BME280;55982;51.476;7.552;2023-04-30T00:37:57;100474.00;;;5.76;100.00
68941;BME280;55982;51.476;7.552;2023-04-30T00:40:22;100474.91;;;5.64;100.00
68941;BME280;55982;51.476;7.552;2023-04-30T00:42:48;100482.72;;;5.63;100.00
68941;BME280;55982;51.476;7.552;2023-04-30T00:45:13;100479.25;;;5.61;100.00
68941;BME280;55982;51.476;7.552;2023-04-30T00:47:39;100478.41;;;5.57;100.00
68941;BME280;55982;51.476;7.552;2023-04-30T00:50:05;100480.97;;;5.55;100.00
68941;BME280;55982;51.476;7.552;2023-04-30T00:52:31;100476.66;;;5.54;100.00
68941;BME280;55982;51.476;7.552;2023-04-30T00:54:56;100480.13;;;5.56;100.00
68941;BME280;55982;51.476;7.552;2023-04-30T00:57:22;100480.97;;;5.55;100.00
68941;BME280;55982;51.476;7.552;2023-04-30T00:59:47;100480.13;;;5.52;100.00
68941;BME280;55982;51.476;7.552;2023-04-30T01:02:13;100483.56;;;5.55;100.00
68941;BME280;55982;51.476;7.552;2023-04-30T01:04:39;100481.00;;;5.52;100.00
68941;BME280;55982;51.476;7.552;2023-04-30T01:07:05;100478.38;;;5.58;100.00
68941;BME280;55982;51.476;7.552;2023-04-30T01:09:31;100483.56;;;5.55;100.00
68941;BME280;55982;51.476;7.552;2023-04-30T01:12:25;100482.72;;;5.63;100.00
68941;BME280;55982;51.476;7.552;2023-04-30T01:20:25;100481.84;;;5.62;100.00
68941;BME280;55982;51.476;7.552;2023-04-30T01:23:13;100474.03;;;5.67;100.00
68941;BME280;55982;51.476;7.552;2023-04-30T01:25:52;100469.69;;;5.67;100.00
68941;BME280;55982;51.476;7.552;2023-04-30T01:28:20;100474.00;;;5.76;100.00
68941;BME280;55982;51.476;7.552;2023-04-30T01:30:49;100468.78;;;5.79;100.00
68941;BME280;55982;51.476;7.552;2023-04-30T01:33:14;100480.00;;;6.05;100.00
68941;BME280;55982;51.476;7.552;2023-04-30T01:44:33;100477.47;;;5.90;100.00
68941;BME280;55982;51.476;7.552;2023-04-30T01:47:28;100479.19;;;5.85;100.00
68941;BME280;55982;51.476;7.552;2023-04-30T01:52:41;100479.16;;;5.97;100.00
68941;BME280;55982;51.476;7.552;2023-04-30T01:57:49;100485.22;;;5.93;100.00
68941;BME280;55982;51.476;7.552;2023-04-30T02:00:17;100490.47;;;5.59;100.00
68941;BME280;55982;51.476;7.552;2023-04-30T02:02:43;100484.50;;;5.33;100.00
68941;BME280;55982;51.476;7.552;2023-04-30T02:05:08;100481.03;;;5.19;100.00
68941;BME280;55982;51.476;7.552;2023-04-30T02:07:41;100494.88;;;5.12;100.00
68941;BME280;55982;51.476;7.552;2023-04-30T02:10:09;100487.97;;;4.99;100.00
68941;BME280;55982;51.476;7.552;2023-04-30T02:12:36;100489.72;;;4.82;100.00
68941;BME280;55982;51.476;7.552;2023-04-30T02:15:02;100490.56;;;4.71;100.00
68941;BME280;55982;51.476;7.552;2023-04-30T02:17:28;100491.38;;;4.56;100.00
68941;BME280;55982;51.476;7.552;2023-04-30T02:19:53;100495.69;;;4.45;100.00
68941;BME280;55982;51.476;7.552;2023-04-30T02:22:19;100500.88;;;4.45;100.00
68941;BME280;55982;51.476;7.552;2023-04-30T02:24:44;100493.94;;;4.51;100.00
68941;BME280;55982;51.476;7.552;2023-04-30T02:27:10;100499.16;;;4.54;100.00
68941;BME280;55982;51.476;7.552;2023-04-30T02:29:35;100506.88;;;4.36;100.00
68941;BME280;55982;51.476;7.552;2023-04-30T02:32:01;100496.53;;;4.44;100.00
68941;BME280;55982;51.476;7.552;2023-04-30T02:34:26;100508.66;;;4.49;100.00
68941;BME280;55982;51.476;7.552;2023-04-30T02:36:52;100506.91;;;4.47;100.00
68941;BME280;55982;51.476;7.552;2023-04-30T02:39:17;100511.22;;;4.48;100.00
68941;BME280;55982;51.476;7.552;2023-04-30T02:41:42;100508.66;;;4.51;100.00
68941;BME280;55982;51.476;7.552;2023-04-30T02:44:08;100506.94;;;4.53;100.00
68941;BME280;55982;51.476;7.552;2023-04-30T02:46:33;100514.69;;;4.57;100.00
68941;BME280;55982;51.476;7.552;2023-04-30T02:48:59;100501.78;;;4.59;100.00
68941;BME280;55982;51.476;7.552;2023-04-30T02:51:24;100504.34;;;4.57;100.00
68941;BME280;55982;51.476;7.552;2023-04-30T02:53:54;100505.19;;;4.52;100.00
68941;BME280;55982;51.476;7.552;2023-04-30T02:56:19;100498.28;;;4.48;100.00
68941;BME280;55982;51.476;7.552;2023-04-30T02:58:45;100494.81;;;4.46;100.00
68941;BME280;55982;51.476;7.552;2023-04-30T03:01:11;100503.47;;;4.45;100.00
68941;BME280;55982;51.476;7.552;2023-04-30T03:03:36;100499.97;;;4.37;100.00
68941;BME280;55982;51.476;7.552;2023-04-30T03:06:02;100496.53;;;4.33;100.00
68941;BME280;55982;51.476;7.552;2023-04-30T03:08:27;100506.03;;;4.37;100.00
68941;BME280;55982;51.476;7.552;2023-04-30T03:10:52;100505.16;;;4.37;100.00
68941;BME280;55982;51.476;7.552;2023-04-30T03:13:18;100506.91;;;4.38;100.00
68941;BME280;55982;51.476;7.552;2023-04-30T03:15:43;100499.97;;;4.40;100.00
68941;BME280;55982;51.476;7.552;2023-04-30T03:18:09;100502.56;;;4.38;100.00
68941;BME280;55982;51.476;7.552;2023-04-30T03:20:35;100500.00;;;4.43;100.00
68941;BME280;55982;51.476;7.552;2023-04-30T03:23:00;100498.28;;;4.48;100.00
68941;BME280;55982;51.476;7.552;2023-04-30T03:25:26;100506.06;;;4.51;100.00
68941;BME280;55982;51.476;7.552;2023-04-30T03:27:52;100506.91;;;4.47;100.00
68941;BME280;55982;51.476;7.552;2023-04-30T03:30:17;100502.59;;;4.43;100.00
68941;BME280;55982;51.476;7.552;2023-04-30T03:32:43;100508.63;;;4.48;100.00
68941;BME280;55982;51.476;7.552;2023-04-30T03:35:08;100505.16;;;4.40;100.00
68941;BME280;55982;51.476;7.552;2023-04-30T03:37:34;100503.44;;;4.40;100.00
68941;BME280;55982;51.476;7.552;2023-04-30T03:39:59;100499.13;;;4.41;100.00
68941;BME280;55982;51.476;7.552;2023-04-30T03:42:25;100497.38;;;4.40;100.00
68941;BME280;55982;51.476;7.552;2023-04-30T03:44:50;100499.16;;;4.47;100.00
68941;BME280;55982;51.476;7.552;2023-04-30T03:47:16;100502.59;;;4.50;100.00
68941;BME280;55982;51.476;7.552;2023-04-30T03:49:41;100500.00;;;4.52;100.00
68941;BME280;55982;51.476;7.552;2023-04-30T03:52:07;100488.78;;;4.50;100.00
68941;BME280;55982;51.476;7.552;2023-04-30T03:54:32;100489.63;;;4.43;100.00
68941;BME280;55982;51.476;7.552;2023-04-30T03:56:58;100496.50;;;4.26;100.00
68941;BME280;55982;51.476;7.552;2023-04-30T03:59:24;100494.72;;;4.19;100.00
68941;BME280;55982;51.476;7.552;2023-04-30T04:01:50;100494.81;;;4.34;100.00
68941;BME280;55982;51.476;7.552;2023-04-30T04:04:16;100496.56;;;4.56;100.00
68941;BME280;55982;51.476;7.552;2023-04-30T04:06:42;100505.25;;;4.79;100.00
68941;BME280;55982;51.476;7.552;2023-04-30T04:09:07;100506.97;;;4.77;100.00
68941;BME280;55982;51.476;7.552;2023-04-30T04:11:33;100511.28;;;4.75;100.00
68941;BME280;55982;51.476;7.552;2023-04-30T04:13:59;100515.59;;;4.88;100.00
68941;BME280;55982;51.476;7.552;2023-04-30T04:16:25;100510.44;;;5.03;100.00
68941;BME280;55982;51.476;7.552;2023-04-30T04:18:51;100511.28;;;5.23;100.00
68941;BME280;55982;51.476;7.552;2023-04-30T04:21:17;100514.75;;;5.33;100.00
68941;BME280;55982;51.476;7.552;2023-04-30T04:23:42;100518.22;;;5.24;100.00
68941;BME280;55982;51.476;7.552;2023-04-30T04:26:08;100518.19;;;5.36;100.00
68941;BME280;55982;51.476;7.552;2023-04-30T04:28:34;100522.50;;;5.48;100.00
68941;BME280;55982;51.476;7.552;2023-04-30T04:31:01;100529.41;;;5.47;100.00
68941;BME280;55982;51.476;7.552;2023-04-30T04:33:27;100532.88;;;5.65;100.00
68941;BME280;55982;51.476;7.552;2023-04-30T04:35:53;100533.72;;;5.71;100.00
68941;BME280;55982;51.476;7.552;2023-04-30T04:38:18;100530.25;;;5.72;100.00
68941;BME280;55982;51.476;7.552;2023-04-30T04:40:53;100529.38;;;5.79;100.00
68941;BME280;55982;51.476;7.552;2023-04-30T04:43:19;100535.44;;;5.81;100.00
68941;BME280;55982;51.476;7.552;2023-04-30T04:45:45;100532.81;;;5.92;100.00
68941;BME280;55982;51.476;7.552;2023-04-30T04:48:12;100529.34;;;5.96;100.00
68941;BME280;55982;51.476;7.552;2023-04-30T04:50:38;100532.78;;;6.04;100.00
68941;BME280;55982;51.476;7.552;2023-04-30T04:53:03;100534.47;;;6.20;100.00
68941;BME280;55982;51.476;7.552;2023-04-30T04:55:29;100543.13;;;6.22;100.00
68941;BME280;55982;51.476;7.552;2023-04-30T04:57:54;100541.38;;;6.24;100.00
68941;BME280;55982;51.476;7.552;2023-04-30T05:00:20;100531.81;;;6.24;100.00
68941;BME280;55982;51.476;7.552;2023-04-30T05:02:47;100532.66;;;6.34;100.00
68941;BME280;55982;51.476;7.552;2023-04-30T05:05:13;100538.69;;;6.36;100.00
68941;BME280;55982;51.476;7.552;2023-04-30T05:07:39;100530.88;;;6.45;100.00
68941;BME280;55982;51.476;7.552;2023-04-30T05:10:06;100537.81;;;6.49;100.00
68941;BME280;55982;51.476;7.552;2023-04-30T05:12:31;100538.66;;;6.51;100.00
68941;BME280;55982;51.476;7.552;2023-04-30T05:14:57;100540.34;;;6.58;100.00
68941;BME280;55982;51.476;7.552;2023-04-30T05:17:22;100543.78;;;6.62;100.00
68941;BME280;55982;51.476;7.552;2023-04-30T05:19:47;100546.34;;;6.72;100.00
68941;BME280;55982;51.476;7.552;2023-04-30T05:22:15;100542.84;;;6.72;100.00
68941;BME280;55982;51.476;7.552;2023-04-30T05:24:40;100544.47;;;6.89;100.00
68941;BME280;55982;51.476;7.552;2023-04-30T05:27:06;100539.25;;;6.92;100.00
68941;BME280;55982;51.476;7.552;2023-04-30T05:29:32;100539.22;;;6.98;100.00
68941;BME280;55982;51.476;7.552;2023-04-30T05:31:57;100540.13;;;6.91;100.00
68941;BME280;55982;51.476;7.552;2023-04-30T05:34:23;100540.84;;;7.11;100.00
68941;BME280;55982;51.476;7.552;2023-04-30T05:36:48;100536.44;;;7.19;100.00
68941;BME280;55982;51.476;7.552;2023-04-30T05:39:14;100537.38;;;7.12;100.00
68941;BME280;55982;51.476;7.552;2023-04-30T05:41:39;100540.06;;;6.97;100.00
68941;BME280;55982;51.476;7.552;2023-04-30T05:44:05;100547.81;;;7.06;100.00
68941;BME280;55982;51.476;7.552;2023-04-30T05:46:31;100544.22;;;7.25;100.00
68941;BME280;55982;51.476;7.552;2023-04-30T05:48:56;100549.38;;;7.28;100.00
68941;BME280;55982;51.476;7.552;2023-04-30T05:51:22;100540.69;;;7.29;100.00
68941;BME280;55982;51.476;7.552;2023-04-30T05:53:47;100538.91;;;7.37;100.00
68941;BME280;55982;51.476;7.552;2023-04-30T05:56:13;100543.97;;;7.53;100.00
68941;BME280;55982;51.476;7.552;2023-04-30T05:58:38;100542.16;;;7.58;100.00
68941;BME280;55982;51.476;7.552;2023-04-30T06:01:04;100540.38;;;7.66;100.00
68941;BME280;55982;51.476;7.552;2023-04-30T06:03:30;100539.25;;;7.89;100.00
68941;BME280;55982;51.476;7.552;2023-04-30T06:05:55;100547.00;;;7.97;100.00
68941;BME280;55982;51.476;7.552;2023-04-30T06:08:21;100537.31;;;8.06;100.00
68941;BME280;55982;51.476;7.552;2023-04-30T06:10:47;100538.16;;;8.07;100.00
68941;BME280;55982;51.476;7.552;2023-04-30T06:13:12;100543.31;;;8.13;100.00
68941;BME280;55982;51.476;7.552;2023-04-30T06:15:39;100541.22;;;8.45;100.00
68941;BME280;55982;51.476;7.552;2023-04-30T06:18:05;100540.69;;;8.13;100.00
68941;BME280;55982;51.476;7.552;2023-04-30T06:20:31;100541.41;;;8.28;100.00
68941;BME280;55982;51.476;7.552;2023-04-30T06:22:56;100549.69;;;8.62;100.00
68941;BME280;55982;51.476;7.552;2023-04-30T06:25:22;100550.34;;;8.78;100.00
68941;BME280;55982;51.476;7.552;2023-04-30T06:27:48;100546.16;;;8.63;100.00
68941;BME280;55982;51.476;7.552;2023-04-30T06:30:15;100548.00;;;8.55;100.00
68941;BME280;55982;51.476;7.552;2023-04-30T06:32:41;100528.75;;;8.65;100.00
68941;BME280;55982;51.476;7.552;2023-04-30T06:35:07;100535.41;;;8.87;100.00
68941;BME280;55982;51.476;7.552;2023-04-30T06:37:32;100530.03;;;8.96;100.00
68941;BME280;55982;51.476;7.552;2023-04-30T06:40:04;100521.03;;;9.15;100.00
68941;BME280;55982;51.476;7.552;2023-04-30T06:42:30;100524.06;;;9.42;100.00
68941;BME280;55982;51.476;7.552;2023-04-30T06:44:59;100519.91;;;9.79;100.00
68941;BME280;55982;51.476;7.552;2023-04-30T06:47:30;100511.69;;;9.53;100.00
68941;BME280;55982;51.476;7.552;2023-04-30T06:50:03;100509.78;;;9.61;100.00
68941;BME280;55982;51.476;7.552;2023-04-30T06:52:29;100513.31;;;9.60;100.00
68941;BME280;55982;51.476;7.552;2023-04-30T06:54:54;100507.56;;;9.41;100.00
68941;BME280;55982;51.476;7.552;2023-04-30T06:57:20;100507.28;;;9.56;100.00
68941;BME280;55982;51.476;7.552;2023-04-30T06:59:46;100513.78;;;9.80;100.00
68941;BME280;55982;51.476;7.552;2023-04-30T07:02:12;100516.09;;;9.96;100.00
68941;BME280;55982;51.476;7.552;2023-04-30T07:04:37;100516.97;;;9.95;100.00
68941;BME280;55982;51.476;7.552;2023-04-30T07:07:02;100505.00;;;10.28;100.00
68941;BME280;55982;51.476;7.552;2023-04-30T07:09:28;100514.38;;;10.76;100.00
68941;BME280;55982;51.476;7.552;2023-04-30T07:11:54;100510.59;;;11.25;100.00
68941;BME280;55982;51.476;7.552;2023-04-30T07:14:22;100508.56;;;11.71;100.00
68941;BME280;55982;51.476;7.552;2023-04-30T07:16:51;100502.63;;;11.95;100.00
68941;BME280;55982;51.476;7.552;2023-04-30T07:19:17;100504.78;;;11.47;100.00
68941;BME280;55982;51.476;7.552;2023-04-30T07:21:43;100500.00;;;11.63;100.00
68941;BME280;55982;51.476;7.552;2023-04-30T07:24:09;100500.38;;;12.12;100.00
68941;BME280;55982;51.476;7.552;2023-04-30T07:26:34;100507.16;;;12.50;100.00
68941;BME280;55982;51.476;7.552;2023-04-30T07:29:00;100493.06;;;13.09;100.00
68941;BME280;55982;51.476;7.552;2023-04-30T07:31:26;100492.84;;;12.87;100.00
68941;BME280;55982;51.476;7.552;2023-04-30T07:33:52;100495.81;;;13.57;100.00
68941;BME280;55982;51.476;7.552;2023-04-30T07:36:19;100489.78;;;13.78;100.00
68941;BME280;55982;51.476;7.552;2023-04-30T07:38:45;100492.22;;;13.35;100.00
68941;BME280;55982;51.476;7.552;2023-04-30T07:41:10;100495.66;;;13.37;100.00
68941;BME280;55982;51.476;7.552;2023-04-30T07:43:35;100493.47;;;14.45;100.00
68941;BME280;55982;51.476;7.552;2023-04-30T07:46:01;100491.69;;;15.12;100.00
68941;BME280;55982;51.476;7.552;2023-04-30T07:48:28;100492.09;;;15.23;100.00
68941;BME280;55982;51.476;7.552;2023-04-30T07:50:53;100495.03;;;13.29;100.00
68941;BME280;55982;51.476;7.552;2023-04-30T07:53:19;100490.81;;;14.46;100.00
68941;BME280;55982;51.476;7.552;2023-04-30T07:55:44;100493.44;;;14.46;100.00
68941;BME280;55982;51.476;7.552;2023-04-30T07:58:10;100488.38;;;15.07;100.00
68941;BME280;55982;51.476;7.552;2023-04-30T08:00:36;100496.34;;;15.25;100.00
68941;BME280;55982;51.476;7.552;2023-04-30T08:03:01;100495.97;;;15.56;100.00
68941;BME280;55982;51.476;7.552;2023-04-30T08:05:26;100495.28;;;16.69;100.00
68941;BME280;55982;51.476;7.552;2023-04-30T08:07:52;100489.31;;;17.18;100.00
68941;BME280;55982;51.476;7.552;2023-04-30T08:10:17;100495.72;;;14.99;100.00
68941;BME280;55982;51.476;7.552;2023-04-30T08:12:43;100498.53;;;16.36;100.00
68941;BME280;55982;51.476;7.552;2023-04-30T08:15:09;100500.88;;;15.65;100.00
68941;BME280;55982;51.476;7.552;2023-04-30T08:17:34;100502.69;;;15.83;100.00
68941;BME280;55982;51.476;7.552;2023-04-30T08:20:01;100509.50;;;16.27;100.00
68941;BME280;55982;51.476;7.552;2023-04-30T08:22:27;100495.72;;;15.82;100.00
68941;BME280;55982;51.476;7.552;2023-04-30T08:24:53;100498.81;;;15.72;100.00
68941;BME280;55982;51.476;7.552;2023-04-30T08:27:20;100501.50;;;14.87;100.00
68941;BME280;55982;51.476;7.552;2023-04-30T08:29:45;100502.94;;;16.36;100.00
68941;BME280;55982;51.476;7.552;2023-04-30T08:32:11;100495.19;;;17.06;100.00
68941;BME280;55982;51.476;7.552;2023-04-30T08:34:36;100503.53;;;16.80;100.00
68941;BME280;55982;51.476;7.552;2023-04-30T08:37:02;100498.25;;;16.80;100.00
68941;BME280;55982;51.476;7.552;2023-04-30T08:39:27;100493.22;;;17.45;100.00
68941;BME280;55982;51.476;7.552;2023-04-30T08:41:54;100505.09;;;16.84;100.00
68941;BME280;55982;51.476;7.552;2023-04-30T08:44:21;100507.75;;;15.06;100.00
68941;BME280;55982;51.476;7.552;2023-04-30T08:46:55;100500.09;;;15.20;100.00
68941;BME280;55982;51.476;7.552;2023-04-30T08:49:21;100508.69;;;16.25;100.00
68941;BME280;55982;51.476;7.552;2023-04-30T08:51:47;100501.25;;;15.76;100.00
68941;BME280;55982;51.476;7.552;2023-04-30T08:54:13;100511.19;;;16.48;100.00
68941;BME280;55982;51.476;7.552;2023-04-30T08:56:49;100504.94;;;17.58;100.00
68941;BME280;55982;51.476;7.552;2023-04-30T08:59:14;100510.53;;;17.86;100.00
68941;BME280;55982;51.476;7.552;2023-04-30T09:01:40;100504.13;;;17.39;100.00
68941;BME280;55982;51.476;7.552;2023-04-30T09:04:05;100499.34;;;17.64;99.91
68941;BME280;55982;51.476;7.552;2023-04-30T09:06:31;100499.91;;;17.18;98.04
68941;BME280;55982;51.476;7.552;2023-04-30T09:08:56;100501.06;;;17.12;99.15
68941;BME280;55982;51.476;7.552;2023-04-30T09:11:22;100502.56;;;16.82;100.00
68941;BME280;55982;51.476;7.552;2023-04-30T09:13:52;100505.78;;;17.06;100.00
68941;BME280;55982;51.476;7.552;2023-04-30T09:16:19;100492.38;;;16.92;100.00
68941;BME280;55982;51.476;7.552;2023-04-30T09:18:44;100499.72;;;16.50;100.00
68941;BME280;55982;51.476;7.552;2023-04-30T09:21:11;100496.38;;;17.53;100.00
68941;BME280;55982;51.476;7.552;2023-04-30T09:23:53;100498.78;;;17.05;100.00
68941;BME280;55982;51.476;7.552;2023-04-30T09:26:26;100483.41;;;17.13;100.00
68941;BME280;55982;51.476;7.552;2023-04-30T09:28:54;100496.66;;;17.81;100.00
68941;BME280;55982;51.476;7.552;2023-04-30T09:31:24;100491.66;;;17.92;89.58
68941;BME280;55982;51.476;7.552;2023-04-30T09:33:50;100492.06;;;16.23;100.00
68941;BME280;55982;51.476;7.552;2023-04-30T09:36:16;100485.00;;;17.85;99.96
68941;BME280;55982;51.476;7.552;2023-04-30T09:38:42;100479.41;;;17.40;100.00
68941;BME280;55982;51.476;7.552;2023-04-30T09:41:23;100482.41;;;16.80;100.00
68941;BME280;55982;51.476;7.552;2023-04-30T09:43:49;100481.44;;;18.35;100.00
68941;BME280;55982;51.476;7.552;2023-04-30T09:46:17;100491.31;;;18.15;97.32
68941;BME280;55982;51.476;7.552;2023-04-30T09:48:44;100489.19;;;18.70;92.25
68941;BME280;55982;51.476;7.552;2023-04-30T09:51:09;100487.47;;;19.75;85.91
68941;BME280;55982;51.476;7.552;2023-04-30T09:53:40;100488.00;;;17.95;92.20
68941;BME280;55982;51.476;7.552;2023-04-30T09:56:06;100491.91;;;19.75;89.68
68941;BME280;55982;51.476;7.552;2023-04-30T09:58:36;100491.66;;;18.73;86.47
68941;BME280;55982;51.476;7.552;2023-04-30T10:01:04;100482.59;;;18.13;85.74
68941;BME280;55982;51.476;7.552;2023-04-30T10:03:31;100470.31;;;17.63;88.83
68941;BME280;55982;51.476;7.552;2023-04-30T10:05:58;100479.56;;;18.04;90.49
68941;BME280;55982;51.476;7.552;2023-04-30T10:08:30;100462.94;;;17.69;87.89
68941;BME280;55982;51.476;7.552;2023-04-30T10:11:04;100469.66;;;17.40;88.05
68941;BME280;55982;51.476;7.552;2023-04-30T10:13:34;100468.50;;;17.46;87.98
68941;BME280;55982;51.476;7.552;2023-04-30T10:16:07;100467.75;;;18.75;88.62
68941;BME280;55982;51.476;7.552;2023-04-30T10:18:41;100466.81;;;20.51;82.78
68941;BME280;55982;51.476;7.552;2023-04-30T10:21:08;100453.53;;;19.80;79.17
68941;BME280;55982;51.476;7.552;2023-04-30T10:23:38;100463.06;;;20.27;79.75
68941;BME280;55982;51.476;7.552;2023-04-30T10:26:06;100450.22;;;19.91;83.19
68941;BME280;55982;51.476;7.552;2023-04-30T10:28:32;100445.59;;;18.12;80.93
68941;BME280;55982;51.476;7.552;2023-04-30T10:31:06;100447.63;;;18.86;86.70
68941;BME280;55982;51.476;7.552;2023-04-30T10:33:40;100448.56;;;17.90;83.31
68941;BME280;55982;51.476;7.552;2023-04-30T10:36:20;100454.13;;;18.81;82.51
68941;BME280;55982;51.476;7.552;2023-04-30T10:38:49;100443.63;;;18.64;82.15
68941;BME280;55982;51.476;7.552;2023-04-30T10:41:18;100447.03;;;19.56;81.14
68941;BME280;55982;51.476;7.552;2023-04-30T10:43:46;100442.38;;;20.72;82.64
68941;BME280;55982;51.476;7.552;2023-04-30T10:46:21;100438.50;;;19.51;78.44
68941;BME280;55982;51.476;7.552;2023-04-30T10:48:48;100434.78;;;21.07;76.49
68941;BME280;55982;51.476;7.552;2023-04-30T10:51:14;100426.56;;;20.83;72.44
68941;BME280;55982;51.476;7.552;2023-04-30T10:53:41;100432.81;;;19.28;73.76
68941;BME280;55982;51.476;7.552;2023-04-30T10:56:07;100426.41;;;18.40;85.19
68941;BME280;55982;51.476;7.552;2023-04-30T10:58:35;100429.88;;;18.73;82.89
68941;BME280;55982;51.476;7.552;2023-04-30T11:01:06;100433.47;;;19.31;84.89
68941;BME280;55982;51.476;7.552;2023-04-30T11:03:34;100421.13;;;18.40;79.57
68941;BME280;55982;51.476;7.552;2023-04-30T11:06:07;100428.50;;;19.41;81.60
68941;BME280;55982;51.476;7.552;2023-04-30T11:08:34;100420.50;;;19.27;82.02
68941;BME280;55982;51.476;7.552;2023-04-30T11:11:00;100423.06;;;17.72;86.06
68941;BME280;55982;51.476;7.552;2023-04-30T11:13:26;100421.31;;;18.68;92.35
68941;BME280;55982;51.476;7.552;2023-04-30T11:15:52;100415.75;;;18.72;86.81
68941;BME280;55982;51.476;7.552;2023-04-30T11:18:17;100419.88;;;19.37;82.37
68941;BME280;55982;51.476;7.552;2023-04-30T11:20:49;100406.63;;;19.37;79.58
68941;BME280;55982;51.476;7.552;2023-04-30T11:23:22;100411.06;;;19.07;79.64
68941;BME280;55982;51.476;7.552;2023-04-30T11:25:48;100413.03;;;19.63;80.11
68941;BME280;55982;51.476;7.552;2023-04-30T11:28:20;100405.41;;;21.21;81.07
68941;BME280;55982;51.476;7.552;2023-04-30T11:33:19;100403.31;;;19.18;79.92
68941;BME280;55982;51.476;7.552;2023-04-30T11:35:44;100404.13;;;19.04;80.66
68941;BME280;55982;51.476;7.552;2023-04-30T11:38:18;100400.38;;;19.52;84.62
68941;BME280;55982;51.476;7.552;2023-04-30T11:40:44;100395.66;;;19.71;82.95
68941;BME280;55982;51.476;7.552;2023-04-30T11:43:31;100390.63;;;19.09;80.68
68941;BME280;55982;51.476;7.552;2023-04-30T11:46:11;100390.19;;;19.74;79.89
68941;BME280;55982;51.476;7.552;2023-04-30T11:48:39;100386.81;;;20.41;80.47
68941;BME280;55982;51.476;7.552;2023-04-30T11:51:12;100382.19;;;19.16;81.13
68941;BME280;55982;51.476;7.552;2023-04-30T11:53:38;100390.63;;;19.53;83.88
68941;BME280;55982;51.476;7.552;2023-04-30T11:56:04;100387.03;;;19.40;78.11
68941;BME280;55982;51.476;7.552;2023-04-30T11:58:37;100389.78;;;20.08;79.74
68941;BME280;55982;51.476;7.552;2023-04-30T12:01:05;100377.22;;;20.92;74.93
68941;BME280;55982;51.476;7.552;2023-04-30T12:03:32;100385.63;;;19.62;79.98
68941;BME280;55982;51.476;7.552;2023-04-30T12:05:58;100378.69;;;19.74;77.36
68941;BME280;55982;51.476;7.552;2023-04-30T12:08:23;100382.88;;;19.20;78.02
68941;BME280;55982;51.476;7.552;2023-04-30T12:10:49;100383.63;;;19.22;80.08
68941;BME280;55982;51.476;7.552;2023-04-30T12:13:14;100377.06;;;19.13;79.77
68941;BME280;55982;51.476;7.552;2023-04-30T12:15:56;100373.75;;;19.68;79.11
68941;BME280;55982;51.476;7.552;2023-04-30T12:18:22;100379.53;;;20.02;76.17
68941;BME280;55982;51.476;7.552;2023-04-30T12:20:48;100374.03;;;19.63;77.45
68941;BME280;55982;51.476;7.552;2023-04-30T12:23:14;100370.56;;;20.72;71.56
68941;BME280;55982;51.476;7.552;2023-04-30T12:25:41;100359.56;;;19.25;76.99
68941;BME280;55982;51.476;7.552;2023-04-30T12:28:09;100349.44;;;18.88;80.64
68941;BME280;55982;51.476;7.552;2023-04-30T12:30:36;100362.84;;;19.86;83.83
68941;BME280;55982;51.476;7.552;2023-04-30T12:33:01;100369.09;;;19.43;71.63
68941;BME280;55982;51.476;7.552;2023-04-30T12:35:29;100367.00;;;18.75;77.13
68941;BME280;55982;51.476;7.552;2023-04-30T12:38:06;100360.47;;;19.10;80.52
68941;BME280;55982;51.476;7.552;2023-04-30T12:40:32;100351.47;;;20.27;77.72
68941;BME280;55982;51.476;7.552;2023-04-30T12:43:06;100367.59;;;19.95;75.38
68941;BME280;55982;51.476;7.552;2023-04-30T12:45:50;100359.06;;;19.90;75.89
68941;BME280;55982;51.476;7.552;2023-04-30T12:48:18;100356.81;;;19.70;75.18
68941;BME280;55982;51.476;7.552;2023-04-30T12:53:18;100355.78;;;19.29;79.85
68941;BME280;55982;51.476;7.552;2023-04-30T12:56:14;100352.81;;;19.49;80.10
68941;BME280;55982;51.476;7.552;2023-04-30T12:58:44;100356.44;;;19.76;73.34
68941;BME280;55982;51.476;7.552;2023-04-30T13:01:12;100343.81;;;20.88;69.33
68941;BME280;55982;51.476;7.552;2023-04-30T13:03:38;100334.22;;;20.85;69.66
68941;BME280;55982;51.476;7.552;2023-04-30T13:06:03;100341.53;;;19.16;71.32
68941;BME280;55982;51.476;7.552;2023-04-30T13:08:31;100343.06;;;19.20;76.09
68941;BME280;55982;51.476;7.552;2023-04-30T13:10:56;100330.81;;;19.75;72.04
68941;BME280;55982;51.476;7.552;2023-04-30T13:13:21;100343.81;;;19.38;74.99